Time;durP1;ratioP1;P1;durP2;ratioP2;P2;SDS_P1;SDS_P2;PMS_P1;PMS_P2;Temp;Humidity;BMP_temperature;BMP_pressure;BME280_temperature;BME280_humidity;BME280_pressure;Samples;Min_cycle;Max_cycle;Signal;HPM_P1;HPM_P2
2024/01/22 00:00:31;;;;;;;23.90;21.80;;;5.30;88.10;;;;;;5056244;28;20208;-86
2024/01/22 00:02:56;;;;;;;24.57;21.87;;;5.30;88.40;;;;;;5056102;28;20214;-86
2024/01/22 00:05:22;;;;;;;25.63;23.20;;;5.40;88.70;;;;;;5054684;28;20207;-87
2024/01/22 00:07:47;;;;;;;25.97;23.30;;;5.30;88.70;;;;;;5054937;28;20565;-87
2024/01/22 00:10:13;;;;;;;22.37;20.70;;;5.30;89.00;;;;;;5054816;28;20730;-86
2024/01/22 00:12:39;;;;;;;24.40;22.70;;;5.30;89.00;;;;;;5054596;28;20553;-86
2024/01/22 00:15:04;;;;;;;23.57;21.20;;;5.30;89.00;;;;;;5054550;28;20215;-86
2024/01/22 00:17:30;;;;;;;16.53;13.87;;;5.20;89.10;;;;;;5054416;28;20204;-86
2024/01/22 00:19:56;;;;;;;14.13;12.70;;;5.20;89.20;;;;;;5055811;28;20211;-87
2024/01/22 00:22:21;;;;;;;24.00;21.70;;;5.20;89.10;;;;;;5055749;28;20194;-86
2024/01/22 00:24:47;;;;;;;25.90;23.67;;;5.20;88.90;;;;;;5055842;28;20286;-86
2024/01/22 00:27:12;;;;;;;26.53;23.63;;;5.10;88.90;;;;;;5054339;28;20355;-86
2024/01/22 00:29:37;;;;;;;23.47;21.40;;;5.20;88.90;;;;;;5054750;28;20172;-87
2024/01/22 00:32:03;;;;;;;25.63;23.53;;;5.30;88.70;;;;;;5055408;28;20659;-87
2024/01/22 00:34:29;;;;;;;24.73;22.83;;;5.30;88.40;;;;;;5054229;28;20187;-86
2024/01/22 00:36:54;;;;;;;27.70;24.80;;;5.20;88.50;;;;;;5053959;28;20265;-86
2024/01/22 00:39:21;;;;;;;25.73;23.50;;;5.30;88.60;;;;;;5055620;28;20266;-86
2024/01/22 00:41:50;;;;;;;16.37;14.50;;;5.30;88.50;;;;;;5053953;28;20230;-86
2024/01/22 00:44:15;;;;;;;15.30;13.80;;;5.30;88.30;;;;;;5053916;28;20187;-86
2024/01/22 00:46:41;;;;;;;16.00;12.57;;;5.30;88.20;;;;;;5055166;28;20569;-86
2024/01/22 00:49:06;;;;;;;19.50;15.20;;;5.40;88.10;;;;;;5053705;28;20172;-87
2024/01/22 00:51:33;;;;;;;16.63;14.23;;;5.40;88.00;;;;;;5055381;28;20175;-86
2024/01/22 00:53:59;;;;;;;17.43;14.17;;;5.30;88.10;;;;;;5054212;28;20176;-87
2024/01/22 00:56:24;;;;;;;15.87;14.17;;;5.50;87.80;;;;;;5053861;28;20199;-87
2024/01/22 00:58:50;;;;;;;16.53;14.93;;;5.40;87.80;;;;;;5053895;28;20175;-86
2024/01/22 01:01:15;;;;;;;15.00;13.57;;;5.30;88.00;;;;;;5053809;28;20180;-86
2024/01/22 01:03:41;;;;;;;13.60;12.27;;;5.40;88.00;;;;;;5053980;28;20655;-86
2024/01/22 01:06:06;;;;;;;14.80;13.23;;;5.50;87.50;;;;;;5055165;28;20235;-87
2024/01/22 01:08:32;;;;;;;13.67;12.30;;;5.70;87.00;;;;;;5053045;28;20172;-87
2024/01/22 01:10:58;;;;;;;15.33;13.80;;;5.70;86.90;;;;;;5053665;28;20172;-86
2024/01/22 01:13:23;;;;;;;15.00;13.60;;;5.80;86.30;;;;;;5054760;28;20175;-87
2024/01/22 01:15:49;;;;;;;15.10;13.87;;;5.80;86.20;;;;;;5053313;28;20270;-87
2024/01/22 01:18:14;;;;;;;15.33;14.00;;;5.80;86.00;;;;;;5055045;28;20187;-87
2024/01/22 01:20:40;;;;;;;15.20;13.93;;;5.90;85.90;;;;;;5053420;28;20659;-86
2024/01/22 01:23:05;;;;;;;13.93;12.93;;;5.90;86.00;;;;;;5053253;28;20186;-87
2024/01/22 01:25:32;;;;;;;13.37;12.50;;;6.00;85.60;;;;;;5053357;28;20650;-87
2024/01/22 01:27:58;;;;;;;16.50;14.23;;;6.00;85.30;;;;;;5053459;28;20189;-87
2024/01/22 01:30:23;;;;;;;14.47;13.10;;;6.00;85.60;;;;;;5053211;28;20271;-86
2024/01/22 01:32:49;;;;;;;16.23;14.70;;;5.90;85.60;;;;;;5054330;28;20226;-87
2024/01/22 01:35:15;;;;;;;15.47;14.17;;;6.00;85.30;;;;;;5054745;28;20235;-86
2024/01/22 01:37:40;;;;;;;17.80;14.37;;;6.00;85.40;;;;;;5053134;28;20310;-86
2024/01/22 01:40:06;;;;;;;14.97;13.87;;;6.00;85.10;;;;;;5054403;28;20219;-88
2024/01/22 01:42:32;;;;;;;16.37;14.63;;;6.00;85.60;;;;;;5053939;28;20180;-87
2024/01/22 01:44:57;;;;;;;14.87;13.63;;;6.10;85.70;;;;;;5052770;28;20298;-87
2024/01/22 01:47:23;;;;;;;15.50;13.83;;;6.00;86.20;;;;;;5052775;28;20196;-86
2024/01/22 01:49:48;;;;;;;16.50;13.87;;;6.00;86.10;;;;;;5054070;28;20210;-87
2024/01/22 01:52:15;;;;;;;14.80;13.50;;;5.90;86.80;;;;;;5052720;28;20233;-86
2024/01/22 01:54:46;;;;;;;13.57;12.27;;;5.90;86.80;;;;;;5052898;28;20652;-86
2024/01/22 01:57:12;;;;;;;13.47;12.03;;;5.90;86.80;;;;;;5052770;28;20204;-86
2024/01/22 01:59:42;;;;;;;13.10;12.00;;;5.80;87.00;;;;;;5052928;28;20270;-86
2024/01/22 02:02:08;;;;;;;12.93;11.70;;;5.90;86.90;;;;;;5054301;28;20156;-86
2024/01/22 02:04:33;;;;;;;13.70;12.40;;;5.80;87.30;;;;;;5053799;28;20683;-86
2024/01/22 02:07:00;;;;;;;14.97;13.57;;;5.90;87.40;;;;;;5053646;28;20214;-86
2024/01/22 02:09:45;;;;;;;13.67;12.63;;;5.90;87.30;;;;;;5053787;28;20172;-86
2024/01/22 02:12:11;;;;;;;13.00;12.10;;;5.90;87.30;;;;;;5053344;28;20176;-86
2024/01/22 02:14:36;;;;;;;13.60;12.23;;;6.00;87.00;;;;;;5052312;28;20187;-86
2024/01/22 02:17:02;;;;;;;13.53;12.43;;;6.00;87.30;;;;;;5053702;28;20206;-87
2024/01/22 02:19:27;;;;;;;13.03;12.00;;;6.00;87.10;;;;;;5052912;28;20175;-87
2024/01/22 02:21:53;;;;;;;13.13;12.03;;;6.00;87.20;;;;;;5052276;28;20176;-86
2024/01/22 02:24:18;;;;;;;13.40;12.10;;;5.90;87.50;;;;;;5052429;28;20176;-86
2024/01/22 02:26:44;;;;;;;12.27;11.17;;;5.90;87.40;;;;;;5053362;28;20261;-86
2024/01/22 02:29:09;;;;;;;12.57;11.40;;;5.90;87.70;;;;;;5053487;28;20706;-86
2024/01/22 02:31:35;;;;;;;11.87;10.83;;;5.80;87.80;;;;;;5053673;28;20176;-86
2024/01/22 02:34:00;;;;;;;12.30;11.30;;;5.90;87.70;;;;;;5053707;28;20176;-86
2024/01/22 02:36:26;;;;;;;12.23;11.37;;;6.00;87.70;;;;;;5052030;28;20218;-86
2024/01/22 02:38:51;;;;;;;11.90;11.00;;;6.00;87.80;;;;;;5052066;28;20560;-87
2024/01/22 02:41:17;;;;;;;12.50;11.40;;;6.20;87.20;;;;;;5051932;28;20660;-86
2024/01/22 02:43:42;;;;;;;12.03;11.03;;;6.20;87.40;;;;;;5052062;28;20168;-86
2024/01/22 02:46:08;;;;;;;12.10;10.90;;;6.10;87.60;;;;;;5053399;28;20325;-86
2024/01/22 02:48:33;;;;;;;12.97;11.00;;;6.20;87.90;;;;;;5051828;28;20672;-86
2024/01/22 02:50:59;;;;;;;11.33;10.23;;;6.10;88.10;;;;;;5051999;28;20172;-87
2024/01/22 02:53:24;;;;;;;10.30;9.50;;;6.20;88.20;;;;;;5053552;28;20182;-86
2024/01/22 02:55:50;;;;;;;10.47;9.47;;;6.20;88.40;;;;;;5052499;28;20206;-86
2024/01/22 02:58:15;;;;;;;10.83;9.80;;;6.30;88.10;;;;;;5053192;28;20570;-87
2024/01/22 03:00:41;;;;;;;13.67;10.10;;;6.30;88.40;;;;;;5054491;28;20183;-87
2024/01/22 03:03:07;;;;;;;10.47;9.73;;;6.30;88.20;;;;;;5052729;28;20598;-87
2024/01/22 03:05:32;;;;;;;10.60;9.90;;;6.40;88.40;;;;;;5053875;28;20199;-86
2024/01/22 03:07:58;;;;;;;11.93;10.70;;;6.40;88.10;;;;;;5054186;28;20168;-87
2024/01/22 03:10:23;;;;;;;10.87;10.13;;;6.50;87.90;;;;;;5053815;28;20654;-87
2024/01/22 03:12:49;;;;;;;12.17;11.10;;;6.70;87.30;;;;;;5052494;28;20195;-87
2024/01/22 03:15:14;;;;;;;20.97;19.53;;;6.80;86.80;;;;;;5053574;28;20191;-87
2024/01/22 03:17:40;;;;;;;22.27;20.77;;;6.80;86.70;;;;;;5052578;28;20691;-87
2024/01/22 03:20:06;;;;;;;22.13;20.33;;;6.90;86.30;;;;;;5052496;28;20187;-86
2024/01/22 03:22:31;;;;;;;23.93;22.10;;;6.80;86.30;;;;;;5052553;28;20184;-86
2024/01/22 03:24:57;;;;;;;23.50;21.67;;;7.00;86.20;;;;;;5052581;28;20253;-86
2024/01/22 03:27:23;;;;;;;24.47;22.80;;;7.00;85.70;;;;;;5052367;28;20549;-87
2024/01/22 03:29:48;;;;;;;23.53;21.77;;;7.10;85.80;;;;;;5052531;28;20175;-86
2024/01/22 03:32:13;;;;;;;24.80;22.63;;;7.10;86.20;;;;;;5056031;28;20183;-87
2024/01/22 03:34:39;;;;;;;24.00;21.93;;;7.20;85.80;;;;;;5056131;28;20184;-87
2024/01/22 03:37:04;;;;;;;24.57;22.70;;;7.30;85.80;;;;;;5057079;28;20216;-87
2024/01/22 03:39:31;;;;;;;23.87;22.27;;;7.30;86.00;;;;;;5055811;28;20655;-87
2024/01/22 03:41:57;;;;;;;23.33;21.83;;;7.30;85.60;;;;;;5057648;28;20176;-87
2024/01/22 03:44:22;;;;;;;22.97;21.40;;;7.30;85.90;;;;;;5057305;28;20180;-87
2024/01/22 03:46:48;;;;;;;23.90;21.53;;;7.20;86.30;;;;;;5055530;28;20200;-87
2024/01/22 03:49:13;;;;;;;22.03;20.53;;;7.30;86.30;;;;;;5055835;28;20644;-87
2024/01/22 03:51:39;;;;;;;22.20;20.53;;;7.30;86.80;;;;;;5057589;28;20172;-87
2024/01/22 03:54:04;;;;;;;19.47;18.37;;;7.30;87.40;;;;;;5055949;28;20180;-87
2024/01/22 03:56:30;;;;;;;20.10;18.70;;;7.10;87.60;;;;;;5055633;28;20215;-86
2024/01/22 03:58:55;;;;;;;20.03;18.63;;;7.10;87.70;;;;;;5058254;28;20172;-87
2024/01/22 04:01:21;;;;;;;19.80;18.13;;;7.20;87.70;;;;;;5057900;28;20189;-87
2024/01/22 04:03:47;;;;;;;19.43;18.00;;;7.20;87.90;;;;;;5055891;28;20259;-87
2024/01/22 04:06:12;;;;;;;18.80;17.50;;;7.20;88.10;;;;;;5055620;28;20354;-87
2024/01/22 04:08:38;;;;;;;17.60;16.50;;;7.20;88.00;;;;;;5056053;28;20195;-87
2024/01/22 04:11:03;;;;;;;20.13;18.63;;;7.10;88.40;;;;;;5056478;28;20184;-87
2024/01/22 04:13:29;;;;;;;19.07;17.83;;;7.20;88.20;;;;;;5057630;28;20180;-87
2024/01/22 04:15:54;;;;;;;18.63;16.87;;;7.10;88.50;;;;;;5055991;28;20203;-87
2024/01/22 04:18:20;;;;;;;15.53;14.53;;;7.10;88.90;;;;;;5055922;28;20271;-87
2024/01/22 04:20:45;;;;;;;9.10;8.40;;;7.10;89.10;;;;;;5056502;28;20535;-87
2024/01/22 04:23:11;;;;;;;10.80;8.93;;;7.20;89.00;;;;;;5055781;28;20186;-87
2024/01/22 04:25:37;;;;;;;16.13;8.30;;;7.00;89.60;;;;;;5057833;28;20652;-87
2024/01/22 04:28:03;;;;;;;9.27;8.37;;;7.00;90.00;;;;;;5055799;28;20259;-87
2024/01/22 04:30:28;;;;;;;9.47;8.57;;;7.10;90.00;;;;;;5055707;28;20195;-87
2024/01/22 04:32:54;;;;;;;9.27;8.57;;;7.10;90.00;;;;;;5057400;28;20180;-87
2024/01/22 04:35:19;;;;;;;8.87;8.17;;;7.10;90.20;;;;;;5056408;28;20207;-86
2024/01/22 04:37:45;;;;;;;7.97;7.40;;;7.10;90.20;;;;;;5055796;28;20306;-87
2024/01/22 04:40:13;;;;;;;8.33;7.73;;;7.10;90.20;;;;;;5055678;28;20180;-87
2024/01/22 04:42:40;;;;;;;8.27;7.67;;;7.30;90.10;;;;;;5056519;28;20172;-87
2024/01/22 04:45:06;;;;;;;9.00;8.30;;;7.20;90.30;;;;;;5057246;28;20195;-87
2024/01/22 04:47:32;;;;;;;9.70;8.90;;;7.20;90.00;;;;;;5057207;28;20613;-87
2024/01/22 04:49:58;;;;;;;9.83;9.13;;;7.30;89.90;;;;;;5055421;28;20182;-87
2024/01/22 04:52:23;;;;;;;9.33;8.63;;;7.40;89.90;;;;;;5056970;28;20277;-87
2024/01/22 04:54:49;;;;;;;10.00;9.10;;;7.40;89.80;;;;;;5056110;28;20191;-87
2024/01/22 04:57:14;;;;;;;8.97;8.37;;;7.40;89.80;;;;;;5056201;28;20295;-87
2024/01/22 04:59:40;;;;;;;9.47;8.67;;;7.50;89.90;;;;;;5056528;28;20633;-87
2024/01/22 05:02:05;;;;;;;9.07;8.47;;;7.60;89.70;;;;;;5055027;28;20184;-87
2024/01/22 05:04:31;;;;;;;9.30;8.50;;;7.70;89.60;;;;;;5055897;28;20212;-87
2024/01/22 05:06:56;;;;;;;8.30;7.70;;;7.60;90.00;;;;;;5055808;28;20196;-88
2024/01/22 05:09:22;;;;;;;7.90;7.40;;;7.60;90.40;;;;;;5057097;28;20651;-87
2024/01/22 05:11:47;;;;;;;8.97;8.27;;;7.80;90.20;;;;;;5056190;28;20176;-87
2024/01/22 05:14:13;;;;;;;9.00;8.40;;;7.90;89.70;;;;;;5057042;28;20183;-87
2024/01/22 05:16:38;;;;;;;10.53;9.47;;;8.00;89.60;;;;;;5057362;28;20249;-87
2024/01/22 05:19:04;;;;;;;9.77;9.17;;;8.00;89.50;;;;;;5055524;28;20266;-87
2024/01/22 05:21:30;;;;;;;9.77;9.07;;;8.10;88.90;;;;;;5055477;28;20261;-87
2024/01/22 05:23:57;;;;;;;10.40;9.40;;;8.20;88.70;;;;;;5055436;28;20614;-87
2024/01/22 05:26:22;;;;;;;10.40;9.63;;;8.20;88.70;;;;;;5055769;28;20307;-88
2024/01/22 05:28:48;;;;;;;10.57;9.77;;;8.10;89.00;;;;;;5055982;28;20259;-88
2024/01/22 05:31:13;;;;;;;9.70;9.20;;;8.20;88.20;;;;;;5056787;28;20660;-87
2024/01/22 05:33:39;;;;;;;10.37;9.77;;;8.20;88.40;;;;;;5057787;28;20176;-87
2024/01/22 05:36:05;;;;;;;10.37;9.67;;;8.20;88.70;;;;;;5056375;28;20279;-87
2024/01/22 05:38:30;;;;;;;9.73;9.07;;;8.20;88.70;;;;;;5057880;28;20686;-87
2024/01/22 05:40:56;;;;;;;10.23;9.60;;;8.20;88.80;;;;;;5057959;28;20705;-87
2024/01/22 05:43:21;;;;;;;10.27;9.57;;;8.20;88.60;;;;;;5055881;28;20172;-87
2024/01/22 05:45:47;;;;;;;9.70;8.90;;;8.20;88.60;;;;;;5055971;28;20196;-87
2024/01/22 05:48:12;;;;;;;10.03;9.27;;;8.20;88.60;;;;;;5057733;28;20176;-87
2024/01/22 05:50:38;;;;;;;9.57;8.97;;;8.30;88.50;;;;;;5057711;28;20174;-87
2024/01/22 05:53:04;;;;;;;9.63;8.87;;;8.30;88.80;;;;;;5056966;28;20168;-87
2024/01/22 05:55:29;;;;;;;8.23;7.63;;;8.30;89.20;;;;;;5055294;28;20263;-87
2024/01/22 05:57:55;;;;;;;10.23;8.53;;;8.20;89.90;;;;;;5055088;28;20238;-88
2024/01/22 06:00:21;;;;;;;9.37;8.50;;;8.20;90.10;;;;;;5056635;28;20176;-87
2024/01/22 06:02:47;;;;;;;9.90;9.20;;;8.30;89.70;;;;;;5054884;28;20270;-87
2024/01/22 06:05:12;;;;;;;10.13;9.43;;;8.50;89.10;;;;;;5056355;28;20200;-87
2024/01/22 06:07:39;;;;;;;9.93;9.33;;;8.50;89.30;;;;;;5057138;28;20219;-87
2024/01/22 06:10:08;;;;;;;13.23;12.13;;;8.60;88.90;;;;;;5057617;28;20180;-87
2024/01/22 06:12:34;;;;;;;9.63;9.03;;;8.50;89.30;;;;;;5055867;28;20181;-87
2024/01/22 06:15:00;;;;;;;9.60;9.00;;;8.50;89.10;;;;;;5058137;28;20168;-88
2024/01/22 06:17:30;;;;;;;9.50;9.00;;;8.60;89.40;;;;;;5055554;28;20202;-87
2024/01/22 06:19:58;;;;;;;9.63;9.03;;;8.60;89.10;;;;;;5055986;28;20176;-87
2024/01/22 06:22:24;;;;;;;9.27;8.57;;;8.60;89.30;;;;;;5055896;28;20191;-87
2024/01/22 06:24:49;;;;;;;8.10;7.60;;;8.60;89.60;;;;;;5056910;28;20733;-87
2024/01/22 06:27:15;;;;;;;8.83;8.23;;;8.50;90.00;;;;;;5056805;28;20192;-87
2024/01/22 06:29:40;;;;;;;7.87;7.37;;;8.60;90.10;;;;;;5056768;28;20180;-87
2024/01/22 06:32:07;;;;;;;8.07;7.23;;;8.60;90.60;;;;;;5057830;28;20172;-87
2024/01/22 06:34:33;;;;;;;11.07;10.17;;;8.60;90.90;;;;;;5056383;28;20172;-87
2024/01/22 06:36:58;;;;;;;10.83;10.23;;;8.60;90.90;;;;;;5059283;28;20204;-87
2024/01/22 06:39:23;;;;;;;10.57;9.87;;;8.50;91.40;;;;;;5058713;28;20178;-87
2024/01/22 06:41:49;;;;;;;10.70;10.00;;;8.50;91.80;;;;;;5054936;28;20180;-86
2024/01/22 06:44:15;;;;;;;11.13;10.17;;;8.60;91.40;;;;;;5053472;28;20631;-86
2024/01/22 06:46:41;;;;;;;11.17;10.57;;;8.60;91.50;;;;;;5052366;28;20675;-86
2024/01/22 06:49:07;;;;;;;;;;;8.60;91.30;;;;;;5052020;28;20263;-86
2024/01/22 06:51:33;;;;;;;;;;;8.60;91.50;;;;;;5052299;28;19944;-87
2024/01/22 06:53:59;;;;;;;;;;;8.60;91.60;;;;;;5052608;28;20353;-86
2024/01/22 06:56:25;;;;;;;;;;;8.50;91.80;;;;;;5053643;28;20011;-86
2024/01/22 06:58:50;;;;;;;;;;;8.70;91.80;;;;;;5052980;28;20000;-86
2024/01/22 07:01:15;;;;;;;;;;;8.80;91.20;;;;;;5052689;28;19912;-87
2024/01/22 07:03:41;;;;;;;;;;;8.80;91.00;;;;;;5052823;28;19955;-87
2024/01/22 07:06:06;;;;;;;11.57;10.80;;;8.80;91.10;;;;;;5053653;28;19923;-86
2024/01/22 07:08:32;;;;;;;11.03;10.33;;;8.80;91.10;;;;;;5055755;28;20695;-86
2024/01/22 07:10:58;;;;;;;11.63;10.73;;;8.90;91.10;;;;;;5055736;28;20168;-87
2024/01/22 07:13:23;;;;;;;12.40;11.60;;;9.00;90.60;;;;;;5055677;28;20175;-87
2024/01/22 07:15:49;;;;;;;11.53;10.73;;;9.00;90.70;;;;;;5055965;28;20187;-86
2024/01/22 07:18:15;;;;;;;12.97;12.13;;;9.10;90.50;;;;;;5057090;28;20754;-87
2024/01/22 07:20:40;;;;;;;13.47;12.67;;;9.10;90.60;;;;;;5055599;28;20186;-87
2024/01/22 07:23:06;;;;;;;7.60;7.10;;;9.10;90.90;;;;;;5056807;28;20186;-86
2024/01/22 07:25:36;;;;;;;8.30;7.80;;;9.20;90.80;;;;;;5056567;28;20545;-87
2024/01/22 07:28:02;;;;;;;8.07;7.57;;;9.20;90.70;;;;;;5056648;28;20246;-86
2024/01/22 07:30:28;;;;;;;7.70;7.20;;;9.10;90.50;;;;;;5055405;28;20183;-87
2024/01/22 07:32:54;;;;;;;8.17;7.57;;;9.20;90.70;;;;;;5055364;28;20238;-87
2024/01/22 07:35:19;;;;;;;7.73;7.33;;;9.30;90.40;;;;;;5055251;28;20230;-86
2024/01/22 07:37:45;;;;;;;8.60;8.00;;;9.30;90.40;;;;;;5055154;28;20215;-86
2024/01/22 07:40:11;;;;;;;7.90;7.40;;;9.30;90.20;;;;;;5055079;28;20705;-86
2024/01/22 07:42:37;;;;;;;7.80;7.40;;;9.40;89.90;;;;;;5055149;28;20176;-87
2024/01/22 07:45:05;;;;;;;8.50;8.00;;;9.50;89.90;;;;;;5055022;28;20238;-87
2024/01/22 07:47:35;;;;;;;9.53;7.07;;;9.60;90.10;;;;;;5054941;28;20202;-87
2024/01/22 07:50:01;;;;;;;7.10;6.60;;;9.50;90.60;;;;;;5054720;28;20188;-87
2024/01/22 07:52:27;;;;;;;6.50;6.10;;;9.40;91.20;;;;;;5055033;28;20211;-86
2024/01/22 07:54:53;;;;;;;6.40;5.90;;;9.40;91.90;;;;;;5055100;28;20254;-87
2024/01/22 07:57:18;;;;;;;6.30;5.93;;;9.30;92.30;;;;;;5054870;28;20208;-86
2024/01/22 07:59:44;;;;;;;7.23;6.73;;;9.30;92.30;;;;;;5054714;28;20180;-86
2024/01/22 08:02:10;;;;;;;7.47;6.83;;;9.30;92.00;;;;;;5054742;28;20188;-86
2024/01/22 08:04:36;;;;;;;6.57;6.17;;;9.30;91.80;;;;;;5054828;28;20562;-86
2024/01/22 08:07:03;;;;;;;6.97;6.37;;;9.20;91.90;;;;;;5055972;28;20188;-86
2024/01/22 08:09:33;;;;;;;6.40;6.10;;;9.20;92.00;;;;;;5054746;28;20172;-87
2024/01/22 08:11:58;;;;;;;5.90;5.60;;;9.20;92.30;;;;;;5054688;28;20648;-87
2024/01/22 08:14:24;;;;;;;6.40;5.80;;;9.20;92.20;;;;;;5054658;28;20230;-86
2024/01/22 08:16:49;;;;;;;5.43;5.03;;;9.20;92.20;;;;;;5055397;28;20246;-86
2024/01/22 08:19:16;;;;;;;6.67;6.17;;;9.30;92.30;;;;;;5055840;28;20221;-86
2024/01/22 08:21:42;;;;;;;6.10;5.60;;;9.20;92.10;;;;;;5054575;28;20662;-87
2024/01/22 08:24:07;;;;;;;6.03;5.63;;;9.20;92.50;;;;;;5054463;28;20180;-87
2024/01/22 08:26:33;;;;;;;5.67;5.27;;;9.30;92.50;;;;;;5054213;28;20561;-87
2024/01/22 08:28:58;;;;;;;6.83;6.33;;;9.10;92.70;;;;;;5055558;28;20168;-86
2024/01/22 08:31:24;;;;;;;5.63;5.30;;;9.10;92.90;;;;;;5054405;28;20179;-86
2024/01/22 08:33:50;;;;;;;5.10;4.80;;;9.10;93.10;;;;;;5054619;28;20175;-86
2024/01/22 08:36:16;;;;;;;6.43;5.97;;;9.20;93.20;;;;;;5054055;28;20231;-86
2024/01/22 08:38:41;;;;;;;6.37;5.87;;;9.10;93.40;;;;;;5055444;28;20180;-86
2024/01/22 08:41:08;;;;;;;6.27;5.77;;;9.20;93.60;;;;;;5054424;28;20180;-87
2024/01/22 08:43:34;;;;;;;5.47;5.10;;;9.10;93.50;;;;;;5054511;28;20183;-86
2024/01/22 08:46:00;;;;;;;6.33;5.83;;;9.10;93.30;;;;;;5054207;28;20213;-87
2024/01/22 08:48:26;;;;;;;5.87;5.53;;;9.30;93.10;;;;;;5054024;28;20172;-87
2024/01/22 08:50:51;;;;;;;5.90;5.50;;;9.40;92.90;;;;;;5054066;28;20179;-86
2024/01/22 08:53:17;;;;;;;7.93;5.90;;;9.30;92.50;;;;;;5055059;28;20282;-86
2024/01/22 08:55:43;;;;;;;6.27;5.87;;;9.50;92.70;;;;;;5053819;28;20659;-86
2024/01/22 08:58:09;;;;;;;6.40;5.90;;;9.50;92.60;;;;;;5053841;28;20180;-86
2024/01/22 09:00:35;;;;;;;9.67;8.87;;;9.50;92.60;;;;;;5053828;28;20172;-87
2024/01/22 09:03:01;;;;;;;9.67;8.87;;;9.50;93.00;;;;;;5053849;28;20729;-86
2024/01/22 09:05:26;;;;;;;9.47;8.87;;;9.50;93.30;;;;;;5053556;28;20232;-86
2024/01/22 09:07:52;;;;;;;8.77;8.13;;;9.50;93.10;;;;;;5054800;28;20203;-85
2024/01/22 09:10:18;;;;;;;10.23;9.43;;;9.60;93.00;;;;;;5053442;28;20656;-86
2024/01/22 09:12:44;;;;;;;10.37;9.40;;;9.60;92.70;;;;;;5054752;28;20176;-86
2024/01/22 09:15:12;;;;;;;8.70;8.10;;;9.60;92.60;;;;;;5054508;28;20184;-86
2024/01/22 09:17:39;;;;;;;8.50;7.80;;;9.60;92.50;;;;;;5053379;28;20210;-86
2024/01/22 09:20:06;;;;;;;10.00;9.10;;;9.80;92.20;;;;;;5053288;28;20187;-86
2024/01/22 09:22:31;;;;;;;10.13;9.47;;;9.80;91.90;;;;;;5054929;28;20176;-86
2024/01/22 09:24:57;;;;;;;10.23;9.40;;;9.80;92.10;;;;;;5054432;28;20566;-87
2024/01/22 09:27:23;;;;;;;11.03;10.13;;;10.00;91.80;;;;;;5053315;28;20200;-86
2024/01/22 09:29:48;;;;;;;10.13;9.23;;;9.90;92.00;;;;;;5052351;28;20168;-88
2024/01/22 09:32:15;;;;;;;10.27;9.27;;;10.00;91.70;;;;;;5052969;28;20176;-89
2024/01/22 09:34:40;;;;;;;10.93;9.57;;;10.10;91.60;;;;;;5052950;28;20180;-89
2024/01/22 09:37:06;;;;;;;12.83;7.57;;;9.90;91.60;;;;;;5053025;28;20216;-89
2024/01/22 09:39:32;;;;;;;10.67;7.83;;;9.60;91.70;;;;;;5052831;28;20183;-91
2024/01/22 09:41:58;;;;;;;13.40;7.97;;;9.30;92.10;;;;;;5052867;28;20172;-90
2024/01/22 09:44:25;;;;;;;14.63;8.23;;;9.10;92.50;;;;;;5052734;28;20648;-90
2024/01/22 09:46:51;;;;;;;17.73;7.23;;;9.00;92.90;;;;;;5052695;28;20290;-90
2024/01/22 09:49:17;;;;;;;15.53;7.97;;;8.90;93.30;;;;;;5052724;28;20184;-90
2024/01/22 09:51:44;;;;;;;9.20;6.87;;;8.80;93.50;;;;;;5052573;28;20245;-90
2024/01/22 09:54:20;;;;;;;16.03;6.83;;;8.80;93.70;;;;;;5052652;28;20648;-90
2024/01/22 09:56:54;;;;;;;13.80;7.77;;;8.80;93.80;;;;;;5052526;28;20195;-91
2024/01/22 09:59:25;;;;;;;15.73;7.47;;;8.70;93.90;;;;;;5052878;28;20267;-90
2024/01/22 10:01:52;;;;;;;17.20;5.80;;;8.70;94.10;;;;;;5052483;28;20210;-90
2024/01/22 10:04:18;;;;;;;15.23;6.63;;;8.80;94.30;;;;;;5052525;28;20179;-91
2024/01/22 10:06:46;;;;;;;7.07;5.53;;;8.70;94.40;;;;;;5052256;28;20212;-90
2024/01/22 10:09:15;;;;;;;9.53;5.50;;;8.80;94.70;;;;;;5052317;28;20172;-90
2024/01/22 10:11:44;;;;;;;8.63;4.90;;;8.90;94.70;;;;;;5052346;28;20203;-90
2024/01/22 10:14:11;;;;;;;8.50;4.40;;;9.10;94.60;;;;;;5052293;28;20381;-90
2024/01/22 10:16:36;;;;;;;4.27;3.93;;;9.30;94.50;;;;;;5052129;28;20204;-90
2024/01/22 10:19:05;;;;;;;7.37;4.60;;;9.30;94.30;;;;;;5052251;28;20187;-90
2024/01/22 10:21:31;;;;;;;6.33;4.77;;;9.30;94.30;;;;;;5052179;28;20271;-90
2024/01/22 10:24:07;;;;;;;7.10;5.37;;;9.30;94.40;;;;;;5052426;28;20179;-90
2024/01/22 10:26:34;;;;;;;13.43;5.93;;;9.30;94.30;;;;;;5051913;28;20211;-90
2024/01/22 10:29:22;;;;;;;12.27;4.87;;;9.20;94.30;;;;;;5052052;28;20176;-90
2024/01/22 10:31:56;;;;;;;13.50;6.00;;;9.20;94.10;;;;;;5052731;28;20172;-90
2024/01/22 10:34:28;;;;;;;10.87;5.87;;;9.20;94.10;;;;;;5052253;28;20546;-90
2024/01/22 10:37:08;;;;;;;12.87;7.10;;;9.20;93.70;;;;;;5051849;28;20292;-90
2024/01/22 10:39:35;;;;;;;12.40;6.00;;;9.30;92.90;;;;;;5052600;28;20259;-90
2024/01/22 10:42:14;;;;;;;11.37;5.77;;;9.20;93.10;;;;;;5052056;28;20279;-90
2024/01/22 10:44:46;;;;;;;11.67;6.67;;;9.20;93.30;;;;;;5052015;28;20562;-90
2024/01/22 10:47:13;;;;;;;18.93;6.40;;;9.10;93.50;;;;;;5051914;28;20198;-89
2024/01/22 10:49:40;;;;;;;9.97;5.80;;;9.10;93.50;;;;;;5052229;28;20184;-89
2024/01/22 10:52:06;;;;;;;8.23;5.10;;;9.10;93.60;;;;;;5051815;28;20176;-90
2024/01/22 10:54:33;;;;;;;14.27;6.10;;;9.00;93.70;;;;;;5051871;28;20570;-90
2024/01/22 10:57:04;;;;;;;10.03;5.93;;;9.00;93.70;;;;;;5051840;28;20206;-89
2024/01/22 10:59:40;;;;;;;11.37;6.43;;;9.00;93.80;;;;;;5051846;28;20263;-89
2024/01/22 11:02:06;;;;;;;14.87;6.40;;;9.00;93.90;;;;;;5052653;28;20654;-89
2024/01/22 11:04:44;;;;;;;9.57;5.67;;;9.00;93.90;;;;;;5052521;28;20180;-89
2024/01/22 11:07:10;;;;;;;11.00;6.93;;;9.10;93.70;;;;;;5051713;28;20667;-89
2024/01/22 11:09:37;;;;;;;21.77;7.23;;;9.10;93.50;;;;;;5051678;28;20698;-89
2024/01/22 11:12:11;;;;;;;7.50;6.60;;;9.20;93.40;;;;;;5051663;28;20675;-89
2024/01/22 11:14:38;;;;;;;14.07;6.93;;;9.20;93.10;;;;;;5052816;28;20222;-89
2024/01/22 11:17:06;;;;;;;16.40;7.03;;;9.20;93.10;;;;;;5051516;28;20561;-90
2024/01/22 11:19:32;;;;;;;19.30;7.00;;;9.10;92.90;;;;;;5052405;28;20588;-89
2024/01/22 11:21:58;;;;;;;17.43;7.17;;;9.20;93.00;;;;;;5051598;28;20175;-89
2024/01/22 11:24:24;;;;;;;13.40;7.80;;;9.40;92.90;;;;;;5051543;28;20176;-89
2024/01/22 11:26:55;;;;;;;13.00;7.63;;;9.50;92.30;;;;;;5051357;28;20223;-90
2024/01/22 11:29:28;;;;;;;22.07;9.67;;;9.50;92.00;;;;;;5052009;28;20187;-89
2024/01/22 11:31:55;;;;;;;14.40;10.27;;;9.50;91.60;;;;;;5052235;28;20176;-89
2024/01/22 11:34:39;;;;;;;24.37;11.30;;;9.40;91.30;;;;;;5051548;28;20270;-90
2024/01/22 11:37:04;;;;;;;17.60;14.50;;;9.30;91.10;;;;;;5052954;28;20226;-90
2024/01/22 11:39:33;;;;;;;24.00;15.70;;;9.40;90.70;;;;;;5051334;28;20648;-91
2024/01/22 11:42:28;;;;;;;29.73;16.73;;;9.40;90.20;;;;;;5051747;28;20706;-87
2024/01/22 11:44:54;;;;;;;26.27;18.27;;;9.40;90.20;;;;;;5052650;28;20276;-89
2024/01/22 11:47:22;;;;;;;25.53;19.50;;;9.40;90.00;;;;;;5051211;28;20195;-89
2024/01/22 11:49:47;;;;;;;26.00;19.63;;;9.50;89.80;;;;;;5052490;28;20649;-89
2024/01/22 11:52:17;;;;;;;21.70;17.97;;;9.40;89.40;;;;;;5052287;28;20183;-88
2024/01/22 11:54:59;;;;;;;28.77;18.57;;;9.50;89.00;;;;;;5056169;28;20159;-88
2024/01/22 11:57:25;;;;;;;24.90;19.60;;;9.30;88.50;;;;;;5054871;28;20205;-88
2024/01/22 12:00:05;;;;;;;24.70;19.27;;;9.30;87.90;;;;;;5056141;28;20246;-88
2024/01/22 12:02:34;;;;;;;34.13;20.70;;;9.30;88.20;;;;;;5055584;28;20245;-88
2024/01/22 12:05:17;;;;;;;32.53;18.17;;;9.20;88.90;;;;;;5054838;28;20222;-87
2024/01/22 12:07:44;;;;;;;28.07;18.07;;;9.30;89.00;;;;;;5054666;28;20211;-88
2024/01/22 12:10:21;;;;;;;24.17;17.83;;;9.40;88.70;;;;;;5055802;28;20171;-88
2024/01/22 12:12:55;;;;;;;25.00;17.03;;;9.40;88.60;;;;;;5055797;28;20175;-87
2024/01/22 12:15:22;;;;;;;36.03;18.80;;;9.40;88.70;;;;;;5054572;28;20194;-87
2024/01/22 12:17:48;;;;;;;33.37;16.13;;;9.50;89.10;;;;;;5055064;28;20192;-88
2024/01/22 12:20:15;;;;;;;19.30;17.30;;;9.90;88.60;;;;;;5054624;28;20233;-87
2024/01/22 12:22:40;;;;;;;27.07;20.03;;;9.70;87.80;;;;;;5055796;28;20211;-87
2024/01/22 12:25:12;;;;;;;24.80;19.93;;;9.60;87.60;;;;;;5055828;28;20223;-87
2024/01/22 12:27:38;;;;;;;22.57;19.50;;;9.50;87.20;;;;;;5054554;28;20269;-87
2024/01/22 12:30:16;;;;;;;49.20;23.37;;;9.50;87.20;;;;;;5055513;28;20199;-87
2024/01/22 12:32:54;;;;;;;41.17;20.90;;;9.50;86.30;;;;;;5055842;28;20563;-87
2024/01/22 12:35:23;;;;;;;27.63;20.43;;;9.40;86.70;;;;;;5055393;28;20510;-87
2024/01/22 12:37:49;;;;;;;26.37;20.77;;;9.40;86.90;;;;;;5055189;28;20281;-87
2024/01/22 12:40:16;;;;;;;28.97;21.57;;;9.30;86.90;;;;;;5054110;28;20654;-87
2024/01/22 12:42:50;;;;;;;30.17;20.27;;;9.30;86.90;;;;;;5054153;28;20176;-87
2024/01/22 12:45:19;;;;;;;32.00;22.10;;;9.30;87.10;;;;;;5055185;28;20250;-88